Time;durP1;ratioP1;P1;durP2;ratioP2;P2;SDS_P1;SDS_P2;PMS_P1;PMS_P2;Temp;Humidity;BMP_temperature;BMP_pressure;BME280_temperature;BME280_humidity;BME280_pressure;Samples;Min_cycle;Max_cycle;Signal;HPM_P1;HPM_P2
2023/05/02 00:00:18;;;;;;;5.60;2.00;;;;;;;13.54;97.68;100659.97;5114474;28;20038;-72
2023/05/02 00:02:48;;;;;;;5.13;2.00;;;;;;;13.49;99.00;100666.34;5114288;28;20030;-72
2023/05/02 00:05:19;;;;;;;5.65;2.10;;;;;;;13.39;100.00;100662.47;5113340;28;20405;-71
2023/05/02 00:07:50;;;;;;;10.95;2.42;;;;;;;13.36;100.00;100655.56;5112970;28;20043;-71
2023/05/02 00:10:21;;;;;;;4.78;2.38;;;;;;;13.28;100.00;100659.47;5116713;28;20043;-72
2023/05/02 00:12:51;;;;;;;5.90;2.60;;;;;;;13.25;100.00;100659.59;5110538;28;20500;-72
2023/05/02 00:15:21;;;;;;;7.32;2.50;;;;;;;13.30;100.00;100655.84;5105898;28;20114;-72
2023/05/02 00:17:52;;;;;;;4.95;2.28;;;;;;;13.20;100.00;100656.34;5112263;28;20039;-72
2023/05/02 00:20:22;;;;;;;6.68;2.70;;;;;;;13.18;100.00;100655.53;5117979;28;20027;-72
2023/05/02 00:22:54;;;;;;;5.05;2.60;;;;;;;13.12;100.00;100658.44;5117896;28;20041;-72
2023/05/02 00:25:25;;;;;;;6.63;2.15;;;;;;;13.13;100.00;100657.53;5116697;28;20086;-72
2023/05/02 00:27:55;;;;;;;7.38;2.40;;;;;;;13.06;100.00;100654.31;5115436;28;20043;-71
2023/05/02 00:30:25;;;;;;;5.25;2.67;;;;;;;13.08;100.00;100664.75;5118653;28;20433;-72
2023/05/02 00:32:56;;;;;;;5.93;2.40;;;;;;;13.06;100.00;100664.81;5117027;28;20135;-72
2023/05/02 00:35:26;;;;;;;7.40;3.03;;;;;;;13.08;100.00;100662.13;5117486;28;20031;-72
2023/05/02 00:37:58;;;;;;;7.10;3.70;;;;;;;13.07;100.00;100663.88;5116475;28;20038;-73
2023/05/02 00:40:28;;;;;;;6.32;2.83;;;;;;;13.07;100.00;100663.06;5117975;28;20061;-73
2023/05/02 00:42:59;;;;;;;5.72;2.60;;;;;;;13.04;100.00;100665.81;5116800;28;20114;-73
2023/05/02 00:45:29;;;;;;;6.20;2.70;;;;;;;13.01;100.00;100673.78;5120828;28;20062;-72
2023/05/02 00:48:00;;;;;;;6.45;2.95;;;;;;;13.03;100.00;100669.38;5116985;28;20033;-73
2023/05/02 00:50:32;;;;;;;7.78;2.60;;;;;;;13.03;100.00;100672.00;5117749;28;20102;-72
2023/05/02 00:53:04;;;;;;;6.97;2.70;;;;;;;12.97;100.00;100677.47;5107614;28;20031;-72
2023/05/02 00:55:35;;;;;;;7.65;2.50;;;;;;;12.92;100.00;100679.44;5114982;28;20445;-72
2023/05/02 00:58:10;;;;;;;7.80;2.50;;;;;;;12.88;100.00;100670.81;5118469;28;20062;-72
2023/05/02 01:01:20;;;;;;;10.15;2.90;;;;;;;12.87;100.00;100673.53;5114401;28;20063;-71
2023/05/02 01:04:03;;;;;;;8.07;2.45;;;;;;;12.80;100.00;100672.06;5114611;28;20090;-72
2023/05/02 01:06:52;;;;;;;4.88;2.65;;;;;;;12.93;100.00;100676.75;5117645;28;20042;-71
2023/05/02 01:09:37;;;;;;;5.35;2.55;;;;;;;12.83;100.00;100673.72;5117247;28;20489;-72
2023/05/02 01:12:13;;;;;;;5.10;2.58;;;;;;;12.88;100.00;100671.75;5116264;28;20039;-73
2023/05/02 01:14:49;;;;;;;4.60;2.10;;;;;;;12.84;100.00;100667.56;5117586;28;20030;-72
2023/05/02 01:17:23;;;;;;;6.63;2.17;;;;;;;12.74;100.00;100668.88;5114631;28;20031;-72
2023/05/02 01:19:57;;;;;;;4.57;2.38;;;;;;;12.77;100.00;100674.84;5116348;28;20027;-72
2023/05/02 01:22:29;;;;;;;6.38;1.90;;;;;;;12.81;100.00;100676.41;5119052;28;20063;-72
2023/05/02 01:25:21;;;;;;;4.60;2.17;;;;;;;12.64;100.00;100678.88;5116746;28;20114;-73
2023/05/02 01:28:15;;;;;;;4.35;1.90;;;;;;;12.57;100.00;100682.69;5115474;28;20039;-72
2023/05/02 01:30:48;;;;;;;3.92;1.95;;;;;;;12.52;100.00;100678.56;5109316;28;20024;-72
2023/05/02 01:33:21;;;;;;;3.65;1.80;;;;;;;12.55;100.00;100686.28;5117511;28;20174;-72
2023/05/02 01:35:53;;;;;;;5.70;1.88;;;;;;;12.58;100.00;100689.66;5113110;28;20031;-72
2023/05/02 01:38:26;;;;;;;5.03;1.85;;;;;;;12.57;100.00;100687.06;5118329;28;20073;-72
2023/05/02 01:41:02;;;;;;;3.85;1.98;;;;;;;12.62;100.00;100685.13;5115978;28;20566;-72
2023/05/02 01:43:34;;;;;;;6.47;1.88;;;;;;;12.57;100.00;100677.47;5115635;28;20075;-72
2023/05/02 01:46:09;;;;;;;3.95;2.20;;;;;;;12.48;100.00;100690.09;5115911;28;20027;-72
2023/05/02 01:48:43;;;;;;;4.37;1.90;;;;;;;12.67;100.00;100693.66;5114028;28;20020;-73
2023/05/02 01:51:16;;;;;;;3.70;1.73;;;;;;;12.52;100.00;100678.56;5116358;28;20517;-72
2023/05/02 01:53:49;;;;;;;3.22;1.67;;;;;;;12.54;100.00;100695.06;5117066;28;20094;-73
2023/05/02 01:56:20;;;;;;;3.90;2.17;;;;;;;12.57;100.00;100690.56;5115228;28;20027;-73
2023/05/02 01:58:53;;;;;;;7.82;2.08;;;;;;;12.38;100.00;100692.25;5111129;28;20460;-73
2023/05/02 02:01:26;;;;;;;4.32;2.05;;;;;;;12.35;100.00;100697.63;5117720;28;20031;-72
2023/05/02 02:03:58;;;;;;;5.10;2.00;;;;;;;12.35;100.00;100692.38;5114246;28;20397;-72
2023/05/02 02:06:30;;;;;;;3.15;2.00;;;;;;;12.48;100.00;100696.19;5116357;28;20035;-72
2023/05/02 02:09:00;;;;;;;5.82;1.95;;;;;;;12.50;100.00;100696.97;5112774;28;20035;-72
2023/05/02 02:11:36;;;;;;;4.47;2.03;;;;;;;12.38;100.00;100697.50;5113330;28;20039;-73
2023/05/02 02:14:10;;;;;;;;;;;;;;;12.44;100.00;100707.72;5115522;28;20066;-71
2023/05/02 02:16:41;;;;;;;3.22;1.80;;;;;;;12.47;100.00;100702.34;5112692;28;19918;-73
2023/05/02 02:19:14;;;;;;;4.60;2.03;;;;;;;12.39;100.00;100708.81;5114993;28;20027;-72
2023/05/02 02:21:46;;;;;;;6.60;2.20;;;;;;;12.40;100.00;100710.50;5116194;28;20485;-72
2023/05/02 02:24:20;;;;;;;5.72;2.15;;;;;;;12.42;100.00;100714.78;5116475;28;20122;-73
2023/05/02 02:26:51;;;;;;;3.75;2.10;;;;;;;12.40;100.00;100711.38;5111746;28;20079;-71
2023/05/02 02:29:21;;;;;;;6.03;2.10;;;;;;;12.41;100.00;100718.31;5115971;28;20066;-72
2023/05/02 02:31:51;;;;;;;5.30;2.10;;;;;;;12.24;100.00;100718.16;5115534;28;20039;-71
2023/05/02 02:34:22;;;;;;;7.15;2.10;;;;;;;12.40;100.00;100727.09;5115701;28;20054;-71
2023/05/02 02:37:13;;;;;;;4.75;2.03;;;;;;;12.26;100.00;100724.19;5115200;28;20616;-72
2023/05/02 02:39:59;;;;;;;4.85;2.20;;;;;;;12.38;100.00;100730.69;5111754;28;20039;-71
2023/05/02 02:42:42;;;;;;;5.50;2.50;;;;;;;12.33;100.00;100730.88;5111153;28;20026;-72
2023/05/02 02:45:20;;;;;;;4.28;2.13;;;;;;;12.19;100.00;100742.81;5130413;28;20469;-72
2023/05/02 02:48:15;;;;;;;4.63;2.45;;;;;;;12.18;100.00;100741.13;5112778;28;20130;-72
2023/05/02 02:51:05;;;;;;;4.78;2.47;;;;;;;12.23;100.00;100745.28;5113353;28;20039;-72
2023/05/02 02:53:56;;;;;;;6.22;3.08;;;;;;;12.21;100.00;100741.88;5116524;28;20259;-73
2023/05/02 02:56:45;;;;;;;7.13;3.25;;;;;;;11.95;100.00;100752.47;5113513;28;20046;-72
2023/05/02 02:59:26;;;;;;;6.65;2.65;;;;;;;12.18;100.00;100748.97;5114619;28;20039;-73
2023/05/02 03:02:07;;;;;;;7.53;2.78;;;;;;;12.05;100.00;100761.72;5115119;28;20060;-72
2023/05/02 03:04:41;;;;;;;4.78;2.70;;;;;;;12.26;100.00;100760.03;5111456;28;20019;-71
2023/05/02 03:07:11;;;;;;;5.80;3.13;;;;;;;12.21;100.00;100770.69;5112683;28;20386;-72
2023/05/02 03:09:46;;;;;;;7.75;2.83;;;;;;;12.04;100.00;100770.47;5115226;28;20038;-72
2023/05/02 03:12:17;;;;;;;6.63;3.05;;;;;;;12.09;100.00;100765.06;5114476;28;20023;-72
2023/05/02 03:14:47;;;;;;;8.40;3.95;;;;;;;12.20;100.00;100771.59;5112184;28;20053;-73
2023/05/02 03:17:17;;;;;;;7.10;2.83;;;;;;;12.16;100.00;100771.78;5111682;28;20594;-73
2023/05/02 03:19:48;;;;;;;8.32;3.10;;;;;;;12.22;100.00;100780.25;5113770;28;20398;-71
2023/05/02 03:22:18;;;;;;;6.78;2.72;;;;;;;12.11;100.00;100785.03;5116163;28;20138;-72
2023/05/02 03:24:48;;;;;;;6.70;3.22;;;;;;;12.25;100.00;100780.13;5114977;28;20489;-72
2023/05/02 03:27:18;;;;;;;6.28;3.30;;;;;;;12.11;100.00;100782.41;5114390;28;20027;-72
2023/05/02 03:29:49;;;;;;;6.47;3.40;;;;;;;12.24;100.00;100782.78;5114099;28;20038;-71
2023/05/02 03:32:19;;;;;;;7.50;3.10;;;;;;;12.20;100.00;100784.69;5115178;28;20031;-72
2023/05/02 03:34:49;;;;;;;7.95;3.22;;;;;;;12.22;100.00;100777.63;5115379;28;20520;-71
2023/05/02 03:37:20;;;;;;;7.13;3.85;;;;;;;12.06;100.00;100781.75;5115572;28;20109;-73
2023/05/02 03:39:50;;;;;;;7.35;3.90;;;;;;;12.06;100.00;100789.63;5113413;28;20194;-72
2023/05/02 03:44:55;;;;;;;7.45;3.92;;;;;;;12.23;100.00;100800.31;5112414;28;20517;-73
2023/05/02 03:47:25;;;;;;;7.07;3.72;;;;;;;12.23;100.00;100791.56;5113882;28;20023;-72
2023/05/02 03:49:56;;;;;;;8.15;3.97;;;;;;;12.26;100.00;100796.72;5113765;28;20046;-74
2023/05/02 03:52:27;;;;;;;11.07;3.80;;;;;;;12.31;100.00;100800.84;5114937;28;20420;-71
2023/05/02 03:54:57;;;;;;;10.35;4.10;;;;;;;12.32;100.00;100807.78;5127224;28;20470;-73
2023/05/02 03:57:30;;;;;;;11.13;4.53;;;;;;;12.20;100.00;100807.41;5111457;28;20027;-74
2023/05/02 04:00:01;;;;;;;10.35;5.32;;;;;;;12.21;100.00;100810.00;5113121;28;20050;-73
2023/05/02 04:02:31;;;;;;;10.23;5.40;;;;;;;12.14;100.00;100813.75;5112063;28;20041;-72
2023/05/02 04:05:01;;;;;;;11.30;5.57;;;;;;;12.07;100.00;100819.28;5118900;28;20023;-70
2023/05/02 04:07:32;;;;;;;13.10;5.55;;;;;;;12.07;100.00;100816.66;5113793;28;20106;-70
2023/05/02 04:10:02;;;;;;;12.95;6.43;;;;;;;12.14;100.00;100815.53;5114100;28;20023;-71
2023/05/02 04:12:32;;;;;;;12.20;5.93;;;;;;;12.09;100.00;100820.09;5115301;28;20469;-73
2023/05/02 04:15:03;;;;;;;10.68;5.93;;;;;;;11.98;100.00;100830.09;5114056;28;20527;-75
2023/05/02 04:17:33;;;;;;;11.40;5.80;;;;;;;12.07;100.00;100832.38;5116999;28;20082;-71
2023/05/02 04:20:05;;;;;;;12.88;7.00;;;;;;;12.19;100.00;100830.16;5112673;28;20034;-71
2023/05/02 04:22:35;;;;;;;11.93;6.68;;;;;;;12.16;100.00;100834.66;5115307;28;20027;-73
2023/05/02 04:25:06;;;;;;;12.52;6.80;;;;;;;12.19;100.00;100835.41;5114048;28;20035;-74
2023/05/02 04:27:37;;;;;;;14.00;8.25;;;;;;;12.21;100.00;100836.19;5113878;28;20110;-70
2023/05/02 04:30:09;;;;;;;13.75;7.15;;;;;;;12.20;100.00;100849.34;5111138;28;20274;-73
2023/05/02 04:32:39;;;;;;;15.05;7.50;;;;;;;12.32;100.00;100849.72;5113440;28;20846;-71
2023/05/02 04:35:10;;;;;;;17.33;7.70;;;;;;;12.29;100.00;100857.72;5116161;28;20099;-75
2023/05/02 04:37:40;;;;;;;15.38;7.75;;;;;;;12.26;100.00;100851.75;5128536;28;20603;-73
2023/05/02 04:40:11;;;;;;;15.07;8.45;;;;;;;12.22;100.00;100864.09;5113782;28;20478;-74
2023/05/02 04:42:41;;;;;;;16.70;8.23;;;;;;;12.16;100.00;100853.84;5115425;28;20057;-72
2023/05/02 04:45:11;;;;;;;16.17;8.10;;;;;;;12.19;100.00;100864.22;5114095;28;20034;-72
2023/05/02 04:47:42;;;;;;;15.40;7.38;;;;;;;12.21;100.00;100861.53;5113504;28;20573;-73
2023/05/02 04:50:12;;;;;;;14.40;7.40;;;;;;;12.31;100.00;100868.97;5113659;28;20031;-74
2023/05/02 04:52:42;;;;;;;15.57;8.10;;;;;;;12.21;100.00;100872.88;5113101;28;20042;-72
2023/05/02 04:55:13;;;;;;;16.60;7.60;;;;;;;12.20;100.00;100865.94;5114070;28;20537;-73
2023/05/02 04:57:43;;;;;;;16.10;8.00;;;;;;;12.13;100.00;100877.53;5113087;28;20042;-73
2023/05/02 05:00:14;;;;;;;14.65;7.50;;;;;;;12.23;100.00;100880.66;5115142;28;20496;-73
2023/05/02 05:02:44;;;;;;;14.52;7.93;;;;;;;12.12;100.00;100882.84;5115041;28;20055;-73
2023/05/02 05:05:15;;;;;;;14.27;6.95;;;;;;;12.32;100.00;100888.19;5112918;28;20510;-72
2023/05/02 05:07:45;;;;;;;16.88;7.15;;;;;;;12.43;100.00;100896.53;5118350;28;20031;-71
2023/05/02 05:10:15;;;;;;;14.57;7.50;;;;;;;12.31;100.00;100889.94;5117161;28;20807;-70
2023/05/02 05:12:46;;;;;;;16.33;7.90;;;;;;;12.53;100.00;100896.13;5132230;28;20143;-70
2023/05/02 05:15:16;;;;;;;19.15;8.60;;;;;;;12.48;100.00;100887.53;5117355;28;20031;-70
2023/05/02 05:17:46;;;;;;;15.60;8.18;;;;;;;12.48;100.00;100892.78;5134427;28;20481;-70
2023/05/02 05:20:17;;;;;;;18.13;9.20;;;;;;;12.46;100.00;100904.28;5117756;28;20129;-74
2023/05/02 05:22:47;;;;;;;19.67;9.32;;;;;;;12.31;100.00;100915.31;5117593;28;20039;-72
2023/05/02 05:25:18;;;;;;;15.60;8.25;;;;;;;12.37;100.00;100913.34;5132873;28;20557;-74
2023/05/02 05:27:48;;;;;;;16.83;8.60;;;;;;;12.38;100.00;100920.28;5114498;28;20031;-71
2023/05/02 05:30:18;;;;;;;18.67;9.05;;;;;;;12.31;100.00;100933.66;5115696;28;20456;-73
2023/05/02 05:32:48;;;;;;;18.83;9.65;;;;;;;12.13;100.00;100929.94;5115589;28;20100;-71
2023/05/02 05:35:19;;;;;;;20.85;9.88;;;;;;;12.09;100.00;100936.22;5118785;28;20019;-73
2023/05/02 05:37:49;;;;;;;18.10;9.38;;;;;;;12.10;100.00;100937.91;5115150;28;20485;-73
2023/05/02 05:40:20;;;;;;;20.58;10.05;;;;;;;12.11;100.00;100944.88;5114984;28;20031;-73
2023/05/02 05:42:51;;;;;;;19.48;9.63;;;;;;;11.93;100.00;100945.53;5112723;28;20373;-71
2023/05/02 05:45:21;;;;;;;21.15;9.60;;;;;;;11.90;100.00;100955.25;5133027;28;20019;-75
2023/05/02 05:47:53;;;;;;;19.30;9.85;;;;;;;11.90;100.00;100953.50;5116283;28;20046;-75
2023/05/02 05:50:23;;;;;;;22.20;9.75;;;;;;;11.87;100.00;100961.47;5117051;28;20023;-74
2023/05/02 05:52:54;;;;;;;22.17;10.55;;;;;;;11.91;100.00;100960.44;5116807;28;20548;-72
2023/05/02 05:55:26;;;;;;;24.13;9.70;;;;;;;11.95;100.00;100964.66;5117973;28;20388;-73
2023/05/02 05:57:56;;;;;;;24.67;9.80;;;;;;;11.94;100.00;100962.09;5115490;28;20067;-72
2023/05/02 06:00:27;;;;;;;21.55;10.57;;;;;;;11.82;100.00;100968.59;5119498;28;20106;-73
2023/05/02 06:02:57;;;;;;;20.95;9.77;;;;;;;11.90;100.00;100970.94;5116605;28;20055;-74
2023/05/02 06:05:27;;;;;;;18.20;9.93;;;;;;;11.93;100.00;100981.34;5117428;28;20027;-74
2023/05/02 06:07:58;;;;;;;19.98;9.35;;;;;;;11.94;100.00;100983.06;5114302;28;20131;-73
2023/05/02 06:10:30;;;;;;;17.20;8.55;;;;;;;12.03;100.00;100985.34;5118330;28;20038;-73
2023/05/02 06:13:00;;;;;;;16.10;8.05;;;;;;;12.04;100.00;100990.53;5116518;28;20027;-73
2023/05/02 06:15:32;;;;;;;13.13;6.15;;;;;;;11.95;100.00;100992.63;5118218;28;20038;-74
2023/05/02 06:18:03;;;;;;;11.93;5.47;;;;;;;11.93;100.00;100997.06;5117049;28;20054;-73
2023/05/02 06:20:35;;;;;;;11.32;5.50;;;;;;;12.04;100.00;101001.03;5117484;28;20027;-73
2023/05/02 06:23:05;;;;;;;11.88;5.72;;;;;;;11.93;100.00;101003.16;5117294;28;20611;-73
2023/05/02 06:25:37;;;;;;;12.70;4.93;;;;;;;12.02;100.00;101008.09;5117147;28;20110;-75
2023/05/02 06:28:08;;;;;;;11.18;5.43;;;;;;;11.97;100.00;101014.38;5114524;28;20041;-75
2023/05/02 06:30:38;;;;;;;11.77;5.38;;;;;;;11.96;100.00;101007.44;5117318;28;20031;-73
2023/05/02 06:33:08;;;;;;;11.70;4.85;;;;;;;12.11;100.00;101013.00;5116726;28;20029;-73
2023/05/02 06:35:39;;;;;;;9.55;5.00;;;;;;;12.06;100.00;101020.16;5116387;28;20031;-74
2023/05/02 06:38:09;;;;;;;9.80;4.72;;;;;;;11.97;100.00;101024.84;5113015;28;20512;-73
2023/05/02 06:40:44;;;;;;;8.43;4.20;;;;;;;11.88;100.00;101041.75;5116465;28;20078;-74
2023/05/02 06:43:14;;;;;;;8.00;3.53;;;;;;;11.63;100.00;101051.28;5114208;28;20046;-72
2023/05/02 06:45:44;;;;;;;4.95;2.58;;;;;;;11.46;100.00;101058.78;5117106;28;20031;-73
2023/05/02 06:48:15;;;;;;;5.28;2.53;;;;;;;11.43;100.00;101069.34;5128822;28;20121;-72
2023/05/02 06:50:45;;;;;;;3.00;1.63;;;;;;;11.46;100.00;101065.81;5113551;28;20038;-71
2023/05/02 06:53:15;;;;;;;6.15;1.90;;;;;;;11.43;100.00;101069.34;5115259;28;20150;-72
2023/05/02 06:55:47;;;;;;;3.42;1.70;;;;;;;11.29;100.00;101087.25;5115299;28;20090;-71
2023/05/02 06:58:18;;;;;;;5.03;1.60;;;;;;;11.28;100.00;101090.75;5115156;28;20086;-72
2023/05/02 07:00:49;;;;;;;2.38;1.20;;;;;;;11.00;100.00;101096.03;5114449;28;20030;-69
2023/05/02 07:03:19;;;;;;;2.58;1.25;;;;;;;10.95;100.00;101111.84;5130815;28;20065;-71
2023/05/02 07:05:49;;;;;;;3.20;1.30;;;;;;;10.94;100.00;101114.47;5115518;28;20049;-70
2023/05/02 07:08:21;;;;;;;3.60;1.27;;;;;;;10.73;100.00;101117.69;5114174;28;20027;-73
2023/05/02 07:10:51;;;;;;;5.05;1.05;;;;;;;10.81;100.00;101123.56;5116700;28;20445;-72
2023/05/02 07:13:22;;;;;;;3.75;1.15;;;;;;;10.71;100.00;101127.34;5115667;28;20082;-72
2023/05/02 07:15:52;;;;;;;1.75;0.98;;;;;;;10.73;100.00;101128.16;5117891;28;20031;-70
2023/05/02 07:18:23;;;;;;;4.25;1.38;;;;;;;10.80;100.00;101137.53;5116841;28;20058;-71
2023/05/02 07:20:54;;;;;;;1.73;0.80;;;;;;;10.88;100.00;101141.66;5116952;28;20031;-70
2023/05/02 07:23:24;;;;;;;1.98;0.85;;;;;;;10.90;100.00;101144.25;5116665;28;20029;-69
2023/05/02 07:25:54;;;;;;;4.65;1.20;;;;;;;11.03;100.00;101144.72;5130332;28;20129;-73
2023/05/02 07:28:25;;;;;;;2.97;1.10;;;;;;;11.28;100.00;101143.09;5112235;28;20044;-73
2023/05/02 07:30:55;;;;;;;4.07;1.20;;;;;;;11.38;100.00;101152.41;5116226;28;20484;-71
2023/05/02 07:33:25;;;;;;;3.55;1.08;;;;;;;11.49;100.00;101158.19;5114266;28;20022;-71
2023/05/02 07:35:55;;;;;;;7.43;1.48;;;;;;;11.54;99.97;101161.50;5114756;28;20023;-72
2023/05/02 07:38:26;;;;;;;7.55;2.15;;;;;;;11.53;98.46;101159.81;5112807;28;20162;-71
2023/05/02 07:40:58;;;;;;;4.45;1.08;;;;;;;11.75;98.12;101160.03;5112856;28;20271;-71
2023/05/02 07:43:28;;;;;;;8.70;1.42;;;;;;;11.56;94.82;101171.94;5115876;28;20492;-70
2023/05/02 07:46:03;;;;;;;4.40;1.45;;;;;;;11.62;95.52;101170.00;5114495;28;20043;-71
2023/05/02 07:48:33;;;;;;;3.40;1.30;;;;;;;11.74;95.42;101176.63;5112678;28;20031;-71
2023/05/02 07:51:10;;;;;;;5.10;1.60;;;;;;;11.87;94.76;101178.84;5114218;28;20027;-71
2023/05/02 07:53:40;;;;;;;5.32;1.30;;;;;;;11.72;92.73;101174.06;5116168;28;20038;-71
2023/05/02 07:56:11;;;;;;;7.43;1.58;;;;;;;11.80;92.28;101179.09;5115627;28;20485;-72
2023/05/02 07:58:42;;;;;;;4.75;1.70;;;;;;;11.99;91.96;101175.81;5114828;28;20162;-72
2023/05/02 08:01:12;;;;;;;9.13;1.77;;;;;;;11.83;91.29;101185.09;5115490;28;20042;-73
2023/05/02 08:03:43;;;;;;;6.35;1.33;;;;;;;11.65;90.01;101184.78;5116250;28;20035;-74
2023/05/02 08:06:14;;;;;;;8.23;1.75;;;;;;;11.83;90.45;101194.69;5114901;28;20038;-72
2023/05/02 08:08:44;;;;;;;6.68;1.65;;;;;;;11.91;89.55;101204.03;5129229;28;20031;-71
2023/05/02 08:11:15;;;;;;;4.93;1.65;;;;;;;12.13;88.71;101199.81;5115444;28;20078;-71
2023/05/02 08:13:45;;;;;;;6.97;1.50;;;;;;;12.01;87.61;101189.75;5117253;28;20122;-72
2023/05/02 08:16:15;;;;;;;6.80;1.52;;;;;;;12.01;87.25;101204.59;5115398;28;20408;-72
2023/05/02 08:18:46;;;;;;;7.07;1.45;;;;;;;12.22;86.54;101209.16;5116233;28;20019;-72
2023/05/02 08:21:16;;;;;;;9.75;1.52;;;;;;;12.29;84.78;101211.53;5114920;28;20410;-73
2023/05/02 08:23:46;;;;;;;7.85;1.90;;;;;;;12.11;86.00;101216.53;5115761;28;20035;-72
2023/05/02 08:26:17;;;;;;;8.32;1.80;;;;;;;12.21;86.06;101213.56;5131562;28;20171;-72
2023/05/02 08:28:48;;;;;;;4.50;1.50;;;;;;;12.24;86.27;101221.31;5113252;28;20070;-69
2023/05/02 08:31:18;;;;;;;7.78;1.58;;;;;;;12.35;86.12;101224.47;5114416;28;20568;-71
2023/05/02 08:33:49;;;;;;;9.73;1.58;;;;;;;12.28;85.09;101224.72;5115223;28;20031;-72
2023/05/02 08:36:19;;;;;;;8.98;1.70;;;;;;;12.45;85.39;101233.72;5114004;28;20501;-71
2023/05/02 08:38:49;;;;;;;8.68;1.92;;;;;;;12.67;84.74;101232.09;5113674;28;20030;-72
2023/05/02 08:41:21;;;;;;;11.48;2.45;;;;;;;13.06;81.82;101230.78;5118199;28;20031;-74
2023/05/02 08:43:52;;;;;;;9.32;1.65;;;;;;;13.13;79.55;101240.13;5118491;28;20110;-72
2023/05/02 08:46:23;;;;;;;7.30;1.30;;;;;;;13.35;78.41;101251.56;5118986;28;20157;-72
2023/05/02 08:48:57;;;;;;;8.50;1.77;;;;;;;13.24;77.40;101253.75;5117217;28;20456;-72
2023/05/02 08:51:31;;;;;;;6.28;1.70;;;;;;;14.01;75.82;101257.81;5118705;28;20085;-71
2023/05/02 08:54:06;;;;;;;8.75;1.48;;;;;;;14.06;76.10;101252.41;5118587;28;20015;-72
2023/05/02 08:56:37;;;;;;;13.40;1.67;;;;;;;13.61;75.92;101269.88;5117708;28;20432;-73
2023/05/02 08:59:07;;;;;;;7.80;1.60;;;;;;;13.48;76.43;101266.00;5115398;28;20388;-72
2023/05/02 09:01:42;;;;;;;6.40;1.38;;;;;;;13.27;77.19;101278.09;5118578;28;20035;-72
2023/05/02 09:04:13;;;;;;;12.77;2.23;;;;;;;13.27;78.31;101279.88;5118306;28;20170;-72
2023/05/02 09:06:43;;;;;;;7.18;1.75;;;;;;;13.41;78.40;101288.13;5116635;28;20039;-73
2023/05/02 09:09:14;;;;;;;9.38;1.70;;;;;;;13.07;78.31;101290.22;5114823;28;20042;-72
2023/05/02 09:11:46;;;;;;;14.07;2.05;;;;;;;13.22;78.10;101297.59;5119550;28;20053;-72
2023/05/02 09:14:16;;;;;;;7.50;1.48;;;;;;;13.32;78.16;101301.59;5117051;28;20485;-72
2023/05/02 09:16:46;;;;;;;10.48;1.92;;;;;;;13.28;77.56;101297.34;5122516;28;20065;-71
2023/05/02 09:19:27;;;;;;;7.95;1.45;;;;;;;13.18;77.97;101314.31;5116476;28;20050;-71
2023/05/02 09:22:00;;;;;;;8.43;1.30;;;;;;;13.34;78.66;101318.13;5120164;28;20035;-74
2023/05/02 09:24:30;;;;;;;7.45;1.60;;;;;;;13.40;78.25;101313.53;5119993;28;20499;-73
2023/05/02 09:27:03;;;;;;;8.70;1.52;;;;;;;13.16;78.31;101322.25;5118519;28;20023;-71
2023/05/02 09:29:37;;;;;;;8.68;1.55;;;;;;;12.87;77.26;101320.63;5117577;28;20023;-72
2023/05/02 09:32:07;;;;;;;7.18;1.42;;;;;;;12.83;78.31;101325.09;5115104;28;20293;-71
2023/05/02 09:34:38;;;;;;;10.02;1.80;;;;;;;12.90;79.73;101321.41;5116624;28;20027;-72
2023/05/02 09:37:10;;;;;;;8.60;1.80;;;;;;;12.76;79.16;101334.09;5116923;28;20050;-71
2023/05/02 09:39:40;;;;;;;10.40;1.63;;;;;;;12.85;78.27;101331.16;5116508;28;20119;-72
2023/05/02 09:42:10;;;;;;;11.80;1.92;;;;;;;12.83;78.60;101335.59;5117291;28;20039;-71
2023/05/02 09:44:41;;;;;;;10.40;1.70;;;;;;;12.88;78.46;101335.47;5161306;23;20551;-71
2023/05/02 09:47:23;;;;;;;5.03;1.70;;;;;;;12.78;77.74;101344.56;5146184;28;20719;-70
2023/05/02 09:49:54;;;;;;;4.15;1.13;;;;;;;12.77;77.99;101351.56;5148884;28;20081;-72
2023/05/02 09:52:24;;;;;;;6.82;1.33;;;;;;;12.63;77.83;101353.75;5146385;28;20496;-71
2023/05/02 09:54:55;;;;;;;9.43;1.88;;;;;;;12.65;76.13;101364.19;5146606;28;20419;-72
2023/05/02 09:57:40;;;;;;;9.15;1.48;;;;;;;12.77;75.84;101356.78;5145093;28;20496;-71
2023/05/02 10:00:14;;;;;;;9.52;1.45;;;;;;;12.83;75.03;101364.47;5145526;28;20526;-71
2023/05/02 10:02:50;;;;;;;3.20;1.20;;;;;;;12.68;73.73;101371.97;5146243;28;20226;-72
2023/05/02 10:05:21;;;;;;;5.32;0.80;;;;;;;12.76;74.20;101365.56;5145903;28;20033;-71
2023/05/02 10:07:51;;;;;;;5.85;0.95;;;;;;;12.81;74.13;101368.91;5142021;28;20540;-72
2023/05/02 10:10:22;;;;;;;5.70;1.17;;;;;;;12.71;73.18;101377.13;5143366;28;20033;-73
2023/05/02 10:12:53;;;;;;;3.20;1.10;;;;;;;12.58;73.56;101376.66;5142820;28;20031;-72
2023/05/02 10:15:27;;;;;;;4.45;1.08;;;;;;;12.72;73.24;101381.44;5145286;28;20100;-72
2023/05/02 10:17:59;;;;;;;3.25;0.80;;;;;;;12.70;72.71;101385.91;5141897;28;20030;-72
2023/05/02 10:20:35;;;;;;;7.72;1.10;;;;;;;12.93;73.86;101384.28;5142388;28;20034;-72
2023/05/02 10:23:07;;;;;;;3.25;0.93;;;;;;;13.03;72.48;101383.94;5147723;28;20540;-71
2023/05/02 10:25:38;;;;;;;5.97;1.25;;;;;;;12.88;73.56;101389.66;5142900;28;20125;-69
2023/05/02 10:28:09;;;;;;;3.35;1.20;;;;;;;12.56;72.97;101402.06;5141169;28;20603;-71
2023/05/02 10:30:40;;;;;;;3.42;1.33;;;;;;;12.65;73.38;101399.13;5137478;28;20037;-71
2023/05/02 10:33:13;;;;;;;6.72;1.23;;;;;;;12.77;73.16;101404.00;5134579;28;20097;-70
2023/05/02 10:35:46;;;;;;;2.97;1.02;;;;;;;12.81;72.53;101395.13;5138077;28;20035;-71
2023/05/02 10:38:19;;;;;;;3.60;1.20;;;;;;;12.73;72.06;101407.66;5136596;28;20031;-70
2023/05/02 10:41:13;;;;;;;4.53;1.25;;;;;;;12.57;70.90;101416.88;5139750;28;20523;-71
2023/05/02 10:43:48;;;;;;;7.13;1.40;;;;;;;12.59;70.75;101409.84;5140537;28;20031;-71
2023/05/02 10:46:40;;;;;;;5.82;1.38;;;;;;;12.80;71.44;101411.78;5140039;28;20042;-72
2023/05/02 10:49:11;;;;;;;4.68;1.00;;;;;;;12.86;70.33;101411.63;5142760;28;20380;-72
2023/05/02 10:51:42;;;;;;;5.03;1.15;;;;;;;12.77;70.38;101417.13;5139160;28;20484;-71
2023/05/02 10:54:23;;;;;;;5.43;1.00;;;;;;;12.86;69.59;101411.63;5144660;28;20079;-70
2023/05/02 10:57:03;;;;;;;4.47;1.10;;;;;;;12.98;70.29;101413.03;5142859;28;20141;-71
2023/05/02 10:59:41;;;;;;;4.80;1.00;;;;;;;13.23;70.38;101417.41;5144721;28;20053;-71
2023/05/02 11:02:22;;;;;;;3.75;0.90;;;;;;;13.35;68.18;101404.75;5145136;28;20084;-71
2023/05/02 11:05:05;;;;;;;3.13;0.80;;;;;;;13.41;68.72;101403.69;5144178;28;20516;-72
2023/05/02 11:07:36;;;;;;;6.80;1.20;;;;;;;13.60;67.83;101410.00;5139494;28;20035;-72
2023/05/02 11:10:23;;;;;;;2.95;0.88;;;;;;;13.71;67.55;101408.72;5147229;28;20030;-71
2023/05/02 11:12:56;;;;;;;3.65;1.00;;;;;;;13.83;68.15;101410.06;5141991;28;20388;-71
2023/05/02 11:15:31;;;;;;;4.25;1.00;;;;;;;13.87;68.58;101402.03;5140968;28;20030;-71
2023/05/02 11:18:06;;;;;;;5.07;1.15;;;;;;;14.06;67.36;101402.22;5160843;28;20109;-72
2023/05/02 11:20:40;;;;;;;3.83;1.23;;;;;;;14.00;66.92;101407.69;5144733;28;20577;-71
2023/05/02 11:23:35;;;;;;;5.28;1.67;;;;;;;14.34;66.51;101402.94;5143557;28;20079;-72
2023/05/02 11:26:21;;;;;;;3.28;1.05;;;;;;;14.90;64.84;101402.44;5144571;28;21271;-71
2023/05/02 11:28:51;;;;;;;2.72;0.95;;;;;;;14.71;63.79;101406.72;5140322;28;20037;-72
2023/05/02 11:31:27;;;;;;;5.07;1.38;;;;;;;14.95;64.90;101401.34;5144781;28;20484;-72
2023/05/02 11:34:00;;;;;;;2.80;1.17;;;;;;;14.70;64.53;101398.88;5144190;28;20034;-71
2023/05/02 11:36:34;;;;;;;2.50;1.05;;;;;;;14.46;64.47;101410.38;5145244;28;20054;-71
2023/05/02 11:39:18;;;;;;;5.13;1.00;;;;;;;14.26;64.08;101408.47;5141931;28;20386;-71
2023/05/02 11:41:49;;;;;;;4.72;1.08;;;;;;;14.30;64.04;101419.75;5141089;28;20386;-70
2023/05/02 11:44:20;;;;;;;2.72;0.98;;;;;;;14.05;64.73;101424.16;5144274;28;20141;-72